Portada
METAR-TAF:

METAR-TAF

Aeropuertos :

Agen, Francia

latitud: 44-11N, longitud: 000-36E, altitud: 61 m

Observación

El informe se hizo hace 25 minutos, a las 08:00 UTC
Viento 2 kt con dirección variable
Temperatura 20°C
Humedad 88%
Presión 1018 hPa
Visibilidad 10 km o más
Cielo cubierto a una altura de 4000 ft

METAR: LFBA 140800Z AUTO VRB02KT 9999 OVC040 20/18 Q1018 NOSIG

Hora: 10:25 (08:25 UTC)

Pronóstico

El informe se hizo hace 3 horas y 25 minutos, a las 05:00 UTC
Pronóstico válido del 14 a las 06 UTC al 14 a las 15 UTC
Viento 3 kt con dirección variable
Visibilidad 10 km o más
sin nubes por debajo de 1500 m y sin presencia de cumulonimbus.
Probabilidad 30%
del 14 a las 06 UTC al 14 a las 08 UTC
Cielo nuboso a una altura de 500 ft

TAF: LFBA 140500Z 1406/1415 VRB03KT CAVOK PROB30 1406/1408 BKN005

Observaciones y pronósticos meteorológicos de más de 4000 aeropuertos (mensajes METAR y TAF).

Los puntos amarillos y rojos representan las estaciones disponibles.

Ponga el ratón en el punto deseado para ver el nombre de la estación.

Haga clic para ver las observaciones y los pronósticos meteorológicos.

Para cambiar el mapa : haga clic en los botones verdes con una cruz de color negro para hacer un zoom, en el botón verde con un guión para alejar o en las flechas verdes para mapas adyacentes.


METAR-TAF: